Time;durP1;ratioP1;P1;durP2;ratioP2;P2;SDS_P1;SDS_P2;PMS_P1;PMS_P2;Temp;Humidity;BMP_temperature;BMP_pressure;BME280_temperature;BME280_humidity;BME280_pressure;Samples;Min_cycle;Max_cycle;Signal;HPM_P1;HPM_P2
2022/12/07 00:00:12;;;;;;;26.88;18.77;;;;;;;;;;5059067;28;20021;-71
2022/12/07 00:02:37;;;;;;;22.55;17.17;;;;;;;;;;5065179;28;20110;-72
2022/12/07 00:05:02;;;;;;;22.55;16.75;;;;;;;;;;5052612;28;20158;-72
2022/12/07 00:07:28;;;;;;;23.80;17.67;;;;;;;;;;5053241;28;20029;-71
2022/12/07 00:09:53;;;;;;;22.90;18.70;;;;;;;;;;5054966;28;20480;-71
2022/12/07 00:12:18;;;;;;;24.27;18.85;;;;;;;;;;5052880;28;20053;-72
2022/12/07 00:14:43;;;;;;;28.98;21.17;;;;;;;;;;5054605;28;20075;-71
2022/12/07 00:17:09;;;;;;;29.92;18.70;;;;;;;;;;5053750;28;20028;-72
2022/12/07 00:19:34;;;;;;;28.83;20.83;;;;;;;;;;5052350;28;20031;-71
2022/12/07 00:21:59;;;;;;;28.80;21.42;;;;;;;;;;5050519;28;20025;-71
2022/12/07 00:24:24;;;;;;;27.30;21.48;;;;;;;;;;5051036;28;20021;-72
2022/12/07 00:26:49;;;;;;;29.20;22.10;;;;;;;;;;5041669;28;20049;-71
2022/12/07 00:29:16;;;;;;;30.27;22.85;;;;;;;;;;5051326;28;20029;-71
2022/12/07 00:31:41;;;;;;;30.20;24.60;;;;;;;;;;5037909;28;20020;-70
2022/12/07 00:34:11;;;;;;;35.88;25.35;;;;;;;;;;5044441;28;20111;-71
2022/12/07 00:36:36;;;;;;;31.83;26.10;;;;;;;;;;5052911;28;20071;-71
2022/12/07 00:39:02;;;;;;;36.17;27.33;;;;;;;;;;5052223;28;20033;-70
2022/12/07 00:41:27;;;;;;;41.67;27.75;;;;;;;;;;5036938;28;20056;-70
2022/12/07 00:43:53;;;;;;;40.33;29.45;;;;;;;;;;5031036;28;20028;-71
2022/12/07 00:46:19;;;;;;;40.35;30.38;;;;;;;;;;5031272;28;20013;-71
2022/12/07 00:48:45;;;;;;;36.03;28.42;;;;;;;;;;5050949;28;20036;-71
2022/12/07 00:51:11;;;;;;;34.53;29.80;;;;;;;;;;5045811;28;20047;-72
2022/12/07 00:53:36;;;;;;;41.10;31.13;;;;;;;;;;5048840;28;20025;-71
2022/12/07 00:56:22;;;;;;;37.92;30.42;;;;;;;;;;5060438;28;20021;-71
2022/12/07 00:58:55;;;;;;;45.53;34.40;;;;;;;;;;5040173;28;20162;-70
2022/12/07 01:01:21;;;;;;;46.53;34.07;;;;;;;;;;5046871;28;21308;-70
2022/12/07 01:03:46;;;;;;;47.78;36.30;;;;;;;;;;5049633;28;20021;-71
2022/12/07 01:06:13;;;;;;;43.10;36.83;;;;;;;;;;5047558;28;20045;-71
2022/12/07 01:08:39;;;;;;;55.80;38.85;;;;;;;;;;5049751;28;20017;-71
2022/12/07 01:11:06;;;;;;;51.20;38.53;;;;;;;;;;5054158;28;20363;-71
2022/12/07 01:13:32;;;;;;;55.50;37.75;;;;;;;;;;5045739;28;20059;-71
2022/12/07 01:15:59;;;;;;;52.40;35.20;;;;;;;;;;5030623;28;20018;-71
2022/12/07 01:18:25;;;;;;;47.42;37.13;;;;;;;;;;5043419;28;20021;-71
2022/12/07 01:21:13;;;;;;;49.75;35.35;;;;;;;;;;5063630;28;20467;-71
2022/12/07 01:23:39;;;;;;;47.10;37.35;;;;;;;;;;5037365;28;20033;-73
2022/12/07 01:26:06;;;;;;;51.70;38.38;;;;;;;;;;5049376;28;20024;-71
2022/12/07 01:28:31;;;;;;;50.63;39.13;;;;;;;;;;5052676;28;20017;-71
2022/12/07 01:31:00;;;;;;;48.58;38.28;;;;;;;;;;5056415;28;20361;-71
2022/12/07 01:33:26;;;;;;;52.67;38.65;;;;;;;;;;5065734;28;20399;-71
2022/12/07 01:35:52;;;;;;;51.38;38.13;;;;;;;;;;5054228;28;20037;-71
2022/12/07 01:38:17;;;;;;;52.47;42.08;;;;;;;;;;5054784;28;20051;-71
2022/12/07 01:40:42;;;;;;;47.25;37.20;;;;;;;;;;5053725;28;20076;-71
2022/12/07 01:43:16;;;;;;;55.83;41.08;;;;;;;;;;5052226;28;20017;-71
2022/12/07 01:45:41;;;;;;;47.28;37.88;;;;;;;;;;5053378;28;20057;-71
2022/12/07 01:48:08;;;;;;;51.17;40.17;;;;;;;;;;5054044;28;20408;-72
2022/12/07 01:50:33;;;;;;;51.85;39.13;;;;;;;;;;5046426;28;20376;-71
2022/12/07 01:53:00;;;;;;;50.30;39.75;;;;;;;;;;5035686;28;20029;-70
2022/12/07 01:55:25;;;;;;;46.47;37.45;;;;;;;;;;5039647;28;20108;-70
2022/12/07 01:57:51;;;;;;;49.30;38.08;;;;;;;;;;5036635;28;20795;-71
2022/12/07 02:00:17;;;;;;;47.17;37.22;;;;;;;;;;5038726;28;20049;-71
2022/12/07 02:02:49;;;;;;;47.75;35.53;;;;;;;;;;5042448;28;20059;-71
2022/12/07 02:05:15;;;;;;;46.92;37.72;;;;;;;;;;5042343;28;20056;-71
2022/12/07 02:07:40;;;;;;;42.45;37.30;;;;;;;;;;5037230;28;20510;-71
2022/12/07 02:10:20;;;;;;;42.30;34.78;;;;;;;;;;5037457;28;20476;-70
2022/12/07 02:12:46;;;;;;;45.78;35.03;;;;;;;;;;5067003;28;20017;-71
2022/12/07 02:15:12;;;;;;;49.83;35.15;;;;;;;;;;5041408;28;20021;-70
2022/12/07 02:17:57;;;;;;;39.00;34.00;;;;;;;;;;5047506;28;20031;-71
2022/12/07 02:20:25;;;;;;;53.20;37.03;;;;;;;;;;5023468;28;20491;-72
2022/12/07 02:23:09;;;;;;;46.78;35.55;;;;;;;;;;5049995;28;20403;-71
2022/12/07 02:25:49;;;;;;;45.53;35.00;;;;;;;;;;5054377;28;20021;-71
2022/12/07 02:28:31;;;;;;;48.63;36.95;;;;;;;;;;5052900;28;20067;-72
2022/12/07 02:30:58;;;;;;;50.78;36.10;;;;;;;;;;5051808;28;20087;-72
2022/12/07 02:33:33;;;;;;;42.42;34.78;;;;;;;;;;5028837;28;20016;-71
2022/12/07 02:36:04;;;;;;;43.05;34.58;;;;;;;;;;5050280;28;20017;-71
2022/12/07 02:38:38;;;;;;;42.22;35.30;;;;;;;;;;5035406;28;20036;-71
2022/12/07 02:41:12;;;;;;;46.22;35.17;;;;;;;;;;5036874;28;20480;-71
2022/12/07 02:43:40;;;;;;;43.60;34.63;;;;;;;;;;5036365;28;20022;-72
2022/12/07 02:46:10;;;;;;;42.72;33.75;;;;;;;;;;5047905;28;20074;-71
2022/12/07 02:48:37;;;;;;;49.00;34.58;;;;;;;;;;5049492;28;20429;-71
2022/12/07 02:51:02;;;;;;;45.13;34.97;;;;;;;;;;5034702;28;20571;-71
2022/12/07 02:53:37;;;;;;;47.47;33.90;;;;;;;;;;5042563;28;20100;-71
2022/12/07 02:56:06;;;;;;;45.30;34.67;;;;;;;;;;5035162;28;20026;-71
2022/12/07 02:58:43;;;;;;;50.25;36.55;;;;;;;;;;5048241;28;20091;-71
2022/12/07 03:01:19;;;;;;;44.88;36.30;;;;;;;;;;5045385;28;20028;-71
2022/12/07 03:03:49;;;;;;;47.58;37.70;;;;;;;;;;5058276;28;20116;-72
2022/12/07 03:06:22;;;;;;;48.28;36.42;;;;;;;;;;5047411;28;20112;-71
2022/12/07 03:08:50;;;;;;;53.65;36.75;;;;;;;;;;5052673;28;20029;-72
2022/12/07 03:11:28;;;;;;;48.63;38.00;;;;;;;;;;5045610;28;20048;-71
2022/12/07 03:14:03;;;;;;;48.55;38.65;;;;;;;;;;5041010;28;20082;-71
2022/12/07 03:16:43;;;;;;;49.15;38.28;;;;;;;;;;5038537;28;20024;-71
2022/12/07 03:19:11;;;;;;;55.05;39.80;;;;;;;;;;5051410;28;20028;-72
2022/12/07 03:21:55;;;;;;;48.88;38.05;;;;;;;;;;5042355;28;20024;-72
2022/12/07 03:24:22;;;;;;;57.47;39.47;;;;;;;;;;5050121;28;20017;-72
2022/12/07 03:26:49;;;;;;;54.22;39.78;;;;;;;;;;5050756;28;20074;-72
2022/12/07 03:29:19;;;;;;;54.20;41.75;;;;;;;;;;5047592;28;20025;-72
2022/12/07 03:31:47;;;;;;;56.28;43.67;;;;;;;;;;5038973;28;20140;-72
2022/12/07 03:34:17;;;;;;;51.83;43.35;;;;;;;;;;5034825;28;20021;-73
2022/12/07 03:36:43;;;;;;;58.50;42.13;;;;;;;;;;5041723;28;20038;-72
2022/12/07 03:39:14;;;;;;;56.95;43.08;;;;;;;;;;5047738;28;20028;-72
2022/12/07 03:41:39;;;;;;;51.80;40.55;;;;;;;;;;5032958;28;20104;-71
2022/12/07 03:44:05;;;;;;;57.97;42.15;;;;;;;;;;5033803;28;20045;-71
2022/12/07 03:46:44;;;;;;;52.60;41.63;;;;;;;;;;5032668;28;20026;-71
2022/12/07 03:49:25;;;;;;;55.90;39.75;;;;;;;;;;5038799;28;20041;-72
2022/12/07 03:51:53;;;;;;;47.83;39.40;;;;;;;;;;5044154;28;20380;-71
2022/12/07 03:54:39;;;;;;;52.25;39.63;;;;;;;;;;5052387;28;20024;-71
2022/12/07 03:57:04;;;;;;;56.75;40.00;;;;;;;;;;5051864;28;20361;-70
2022/12/07 03:59:30;;;;;;;62.65;39.10;;;;;;;;;;5052632;28;20143;-70
2022/12/07 04:01:57;;;;;;;49.70;38.10;;;;;;;;;;5038093;28;20096;-72
2022/12/07 04:04:24;;;;;;;54.35;38.67;;;;;;;;;;5032890;28;20029;-71
2022/12/07 04:06:49;;;;;;;47.58;38.05;;;;;;;;;;5041621;28;20017;-71
2022/12/07 04:09:14;;;;;;;50.17;37.25;;;;;;;;;;5068199;28;20032;-71
2022/12/07 04:11:40;;;;;;;47.95;37.63;;;;;;;;;;5052381;28;20028;-71
2022/12/07 04:14:20;;;;;;;46.03;37.25;;;;;;;;;;5061967;28;20391;-70
2022/12/07 04:16:46;;;;;;;38.35;33.33;;;;;;;;;;5052459;28;20021;-71
2022/12/07 04:19:12;;;;;;;43.78;35.85;;;;;;;;;;5052214;28;20372;-72
2022/12/07 04:21:37;;;;;;;46.50;34.13;;;;;;;;;;5050791;28;20024;-71
2022/12/07 04:24:03;;;;;;;42.17;32.97;;;;;;;;;;5051338;28;20013;-71
2022/12/07 04:26:29;;;;;;;46.42;35.60;;;;;;;;;;5050583;28;20017;-71
2022/12/07 04:28:54;;;;;;;46.83;34.60;;;;;;;;;;5051446;28;20040;-71
2022/12/07 04:31:19;;;;;;;42.40;32.60;;;;;;;;;;5049618;28;20116;-71
2022/12/07 04:33:44;;;;;;;38.38;32.60;;;;;;;;;;5052167;28;20094;-71
2022/12/07 04:36:09;;;;;;;48.80;35.13;;;;;;;;;;5051267;28;20095;-70
2022/12/07 04:38:35;;;;;;;46.05;36.75;;;;;;;;;;5051406;28;20033;-71
2022/12/07 04:41:04;;;;;;;50.30;36.22;;;;;;;;;;5051093;28;20047;-71
2022/12/07 04:43:29;;;;;;;41.20;34.45;;;;;;;;;;5051623;28;20017;-71
2022/12/07 04:45:54;;;;;;;48.80;35.97;;;;;;;;;;5050790;28;20013;-71
2022/12/07 04:48:20;;;;;;;48.40;36.33;;;;;;;;;;5051106;28;20032;-71
2022/12/07 04:50:47;;;;;;;51.35;35.72;;;;;;;;;;5049938;28;20029;-71
2022/12/07 04:53:12;;;;;;;42.08;34.13;;;;;;;;;;5049936;28;20099;-71
2022/12/07 04:55:38;;;;;;;44.83;34.53;;;;;;;;;;5048360;28;20060;-71
2022/12/07 04:58:03;;;;;;;43.97;34.85;;;;;;;;;;5050546;28;20030;-71
2022/12/07 05:00:28;;;;;;;52.63;36.90;;;;;;;;;;5048331;28;20607;-71
2022/12/07 05:02:53;;;;;;;45.55;35.50;;;;;;;;;;5051051;28;20031;-70
2022/12/07 05:05:19;;;;;;;49.95;38.20;;;;;;;;;;5051674;28;20071;-71
2022/12/07 05:07:44;;;;;;;53.08;38.88;;;;;;;;;;5054053;28;20039;-71
2022/12/07 05:10:09;;;;;;;52.70;37.92;;;;;;;;;;5053395;28;20037;-72
2022/12/07 05:12:35;;;;;;;47.88;39.13;;;;;;;;;;5049398;28;20423;-71
2022/12/07 05:15:00;;;;;;;53.33;39.40;;;;;;;;;;5041714;28;20428;-71
2022/12/07 05:17:25;;;;;;;60.85;41.30;;;;;;;;;;5048304;28;20052;-71
2022/12/07 05:19:50;;;;;;;52.28;38.13;;;;;;;;;;5041547;28;20024;-72
2022/12/07 05:22:15;;;;;;;57.45;39.70;;;;;;;;;;5043296;28;20025;-72
2022/12/07 05:24:41;;;;;;;58.10;43.25;;;;;;;;;;5039413;28;20032;-71
2022/12/07 05:27:06;;;;;;;80.90;59.08;;;;;;;;;;5042334;28;20029;-71
2022/12/07 05:29:31;;;;;;;64.60;46.92;;;;;;;;;;5036493;28;20357;-71
2022/12/07 05:31:56;;;;;;;60.38;45.58;;;;;;;;;;5034299;28;20018;-72
2022/12/07 05:34:22;;;;;;;55.60;43.78;;;;;;;;;;5037753;28;20021;-72
2022/12/07 05:36:47;;;;;;;58.35;42.30;;;;;;;;;;5044631;28;20033;-70
2022/12/07 05:39:12;;;;;;;60.45;44.22;;;;;;;;;;5036407;28;20025;-72
2022/12/07 05:44:21;;;;;;;58.17;44.37;;;;;;;;;;5036158;28;20068;-71
2022/12/07 05:46:46;;;;;;;58.28;43.83;;;;;;;;;;5036620;28;20300;-71
2022/12/07 05:49:12;;;;;;;57.63;43.97;;;;;;;;;;5035829;28;20464;-71
2022/12/07 05:51:37;;;;;;;59.75;47.42;;;;;;;;;;5036315;28;20099;-71
2022/12/07 05:54:02;;;;;;;51.20;43.33;;;;;;;;;;5036067;28;20461;-71
2022/12/07 05:56:28;;;;;;;57.13;44.28;;;;;;;;;;5044258;28;20403;-71
2022/12/07 06:01:37;;;;;;;58.10;43.42;;;;;;;;;;5047455;28;20048;-71
2022/12/07 06:04:02;;;;;;;66.63;44.38;;;;;;;;;;5039157;28;20025;-71
2022/12/07 06:06:28;;;;;;;62.70;45.20;;;;;;;;;;5041899;28;20040;-72
2022/12/07 06:08:53;;;;;;;64.63;45.50;;;;;;;;;;5040351;28;20051;-71
2022/12/07 06:14:02;;;;;;;63.47;45.53;;;;;;;;;;5038079;28;20530;-71
2022/12/07 06:16:27;;;;;;;60.10;44.58;;;;;;;;;;5038748;28;20026;-71
2022/12/07 06:18:53;;;;;;;60.45;46.92;;;;;;;;;;5035673;28;20507;-71
2022/12/07 06:21:18;;;;;;;57.97;45.22;;;;;;;;;;5045790;28;20025;-70
2022/12/07 06:23:44;;;;;;;73.70;49.55;;;;;;;;;;5044570;28;20017;-72
2022/12/07 06:26:09;;;;;;;68.40;47.30;;;;;;;;;;5052052;28;20020;-71
2022/12/07 06:28:34;;;;;;;61.22;45.33;;;;;;;;;;5052937;28;20040;-71
2022/12/07 06:31:01;;;;;;;64.13;45.58;;;;;;;;;;5050608;28;20438;-71
2022/12/07 06:33:26;;;;;;;67.38;47.88;;;;;;;;;;5045466;28;20025;-71
2022/12/07 06:35:51;;;;;;;66.38;46.70;;;;;;;;;;5043156;28;20078;-71
2022/12/07 06:38:17;;;;;;;60.38;43.97;;;;;;;;;;5052913;28;20036;-70
2022/12/07 06:40:42;;;;;;;57.72;43.85;;;;;;;;;;5051290;28;20028;-71
2022/12/07 06:43:07;;;;;;;61.92;43.80;;;;;;;;;;5051475;28;20052;-71
2022/12/07 06:45:33;;;;;;;55.60;42.75;;;;;;;;;;5048752;28;20043;-71
2022/12/07 06:47:58;;;;;;;56.38;40.45;;;;;;;;;;5051371;28;20112;-70
2022/12/07 06:50:23;;;;;;;61.72;43.72;;;;;;;;;;5048068;28;20113;-70
2022/12/07 06:52:48;;;;;;;59.05;43.83;;;;;;;;;;5050582;28;20025;-71
2022/12/07 06:55:14;;;;;;;63.05;41.30;;;;;;;;;;5050818;28;20029;-71
2022/12/07 06:57:39;;;;;;;64.40;40.60;;;;;;;;;;5051379;28;20044;-71
2022/12/07 07:00:04;;;;;;;56.42;41.55;;;;;;;;;;5048258;28;20028;-72
2022/12/07 07:02:30;;;;;;;63.30;42.13;;;;;;;;;;5049156;28;20017;-72
2022/12/07 07:04:55;;;;;;;63.95;42.92;;;;;;;;;;5050842;28;20021;-71
2022/12/07 07:07:20;;;;;;;60.75;42.10;;;;;;;;;;5050746;28;20459;-76
2022/12/07 07:09:45;;;;;;;57.92;44.63;;;;;;;;;;5053510;28;20386;-71
2022/12/07 07:12:11;;;;;;;69.43;44.75;;;;;;;;;;5051366;28;20075;-71
2022/12/07 07:14:36;;;;;;;60.15;44.38;;;;;;;;;;5053302;28;20017;-71
2022/12/07 07:17:01;;;;;;;57.03;42.80;;;;;;;;;;5039751;28;20482;-71
2022/12/07 07:19:26;;;;;;;60.72;45.17;;;;;;;;;;5036298;28;21273;-71
2022/12/07 07:21:52;;;;;;;59.10;44.17;;;;;;;;;;5035586;28;20025;-71
2022/12/07 07:24:17;;;;;;;65.80;46.00;;;;;;;;;;5040103;28;20017;-71
2022/12/07 07:26:42;;;;;;;56.67;44.00;;;;;;;;;;5032579;28;20460;-71
2022/12/07 07:29:07;;;;;;;61.50;42.95;;;;;;;;;;5036224;28;20115;-70
2022/12/07 07:31:35;;;;;;;67.55;43.90;;;;;;;;;;5049975;28;20020;-71
2022/12/07 07:34:00;;;;;;;59.95;44.35;;;;;;;;;;5046978;28;20021;-71
2022/12/07 07:36:25;;;;;;;56.35;43.72;;;;;;;;;;5047466;28;20392;-71
2022/12/07 07:38:51;;;;;;;64.35;44.28;;;;;;;;;;5043012;28;20037;-71
2022/12/07 07:41:16;;;;;;;57.42;43.28;;;;;;;;;;5048126;28;20463;-71
2022/12/07 07:43:41;;;;;;;68.82;46.10;;;;;;;;;;5047667;28;20029;-71
2022/12/07 07:46:06;;;;;;;66.50;45.50;;;;;;;;;;5047495;28;20013;-71
2022/12/07 07:48:32;;;;;;;72.78;45.95;;;;;;;;;;5042695;28;20020;-71
2022/12/07 07:50:57;;;;;;;60.83;45.53;;;;;;;;;;5047970;28;20112;-72
2022/12/07 07:53:23;;;;;;;63.50;45.92;;;;;;;;;;5042678;28;20030;-71
2022/12/07 07:55:52;;;;;;;54.28;41.75;;;;;;;;;;5042973;28;20426;-71
2022/12/07 07:58:17;;;;;;;89.93;49.38;;;;;;;;;;5035501;28;20431;-71
2022/12/07 08:00:42;;;;;;;115.75;52.35;;;;;;;;;;5036318;28;20013;-71
2022/12/07 08:03:08;;;;;;;62.15;46.83;;;;;;;;;;5036172;28;20045;-71
2022/12/07 08:05:33;;;;;;;68.05;45.60;;;;;;;;;;5033423;28;20025;-71
2022/12/07 08:07:58;;;;;;;60.15;45.92;;;;;;;;;;5042091;28;20017;-71
2022/12/07 08:10:23;;;;;;;64.63;45.85;;;;;;;;;;5036411;28;20064;-70
2022/12/07 08:15:32;;;;;;;59.07;44.20;;;;;;;;;;5042547;28;20091;-71
2022/12/07 08:17:58;;;;;;;76.93;45.78;;;;;;;;;;5039644;28;20363;-69
2022/12/07 08:20:23;;;;;;;60.97;43.95;;;;;;;;;;5033814;28;20021;-72
2022/12/07 08:22:48;;;;;;;70.80;45.55;;;;;;;;;;5037722;28;20026;-72
2022/12/07 08:25:14;;;;;;;66.75;45.55;;;;;;;;;;5032258;28;20427;-69
2022/12/07 08:27:39;;;;;;;64.88;47.20;;;;;;;;;;5034154;28;20076;-72
2022/12/07 08:30:05;;;;;;;61.38;44.42;;;;;;;;;;5040182;28;20033;-71
2022/12/07 08:32:30;;;;;;;67.80;47.63;;;;;;;;;;5040526;28;20498;-71
2022/12/07 08:34:55;;;;;;;71.15;48.03;;;;;;;;;;5050991;28;20021;-70
2022/12/07 08:37:21;;;;;;;70.88;48.80;;;;;;;;;;5051251;28;20037;-71
2022/12/07 08:39:46;;;;;;;67.95;50.00;;;;;;;;;;5050328;28;20025;-71
2022/12/07 08:42:11;;;;;;;67.60;49.78;;;;;;;;;;5035477;28;20671;-71
2022/12/07 08:44:36;;;;;;;72.47;51.33;;;;;;;;;;5037245;28;20054;-72
2022/12/07 08:47:04;;;;;;;74.95;56.70;;;;;;;;;;5035044;28;20014;-74
2022/12/07 08:49:50;;;;;;;67.28;49.25;;;;;;;;;;5024857;28;20553;-75
2022/12/07 08:52:15;;;;;;;70.53;49.13;;;;;;;;;;5034670;28;20017;-74
2022/12/07 08:54:41;;;;;;;65.05;48.75;;;;;;;;;;5041253;28;20032;-72
2022/12/07 08:57:07;;;;;;;59.90;44.05;;;;;;;;;;5033422;28;20111;-72
2022/12/07 08:59:34;;;;;;;61.22;44.40;;;;;;;;;;5038233;28;20028;-71
2022/12/07 09:01:59;;;;;;;66.75;46.22;;;;;;;;;;5037981;28;20017;-71
2022/12/07 09:04:24;;;;;;;75.30;49.45;;;;;;;;;;5042699;28;20035;-70
2022/12/07 09:06:50;;;;;;;60.15;45.13;;;;;;;;;;5031774;28;20060;-71
2022/12/07 09:09:15;;;;;;;58.17;44.03;;;;;;;;;;5042663;28;20021;-71
2022/12/07 09:11:40;;;;;;;62.75;45.40;;;;;;;;;;5051468;28;20384;-71
2022/12/07 09:14:06;;;;;;;60.25;48.42;;;;;;;;;;5051145;28;20024;-71
2022/12/07 09:16:31;;;;;;;61.67;46.95;;;;;;;;;;5058861;28;20079;-71
2022/12/07 09:18:56;;;;;;;66.95;47.20;;;;;;;;;;5051218;28;20021;-71
2022/12/07 09:21:21;;;;;;;64.20;48.63;;;;;;;;;;5049299;28;20013;-71
2022/12/07 09:23:47;;;;;;;58.53;46.30;;;;;;;;;;5060362;28;20066;-72
2022/12/07 09:26:12;;;;;;;60.65;44.50;;;;;;;;;;5050670;28;20471;-72
2022/12/07 09:28:37;;;;;;;64.88;46.70;;;;;;;;;;5050455;28;20043;-67
2022/12/07 09:31:03;;;;;;;57.22;43.75;;;;;;;;;;5043196;28;20135;-71
2022/12/07 09:33:28;;;;;;;60.28;45.35;;;;;;;;;;5038713;28;20060;-69
2022/12/07 09:35:53;;;;;;;64.78;45.58;;;;;;;;;;5041308;28;20443;-70
2022/12/07 09:38:19;;;;;;;64.50;45.80;;;;;;;;;;5051075;28;20443;-70
2022/12/07 09:40:44;;;;;;;70.10;50.63;;;;;;;;;;5040372;28;20025;-70
2022/12/07 09:43:20;;;;;;;56.45;42.85;;;;;;;;;;5039647;28;20030;-70
2022/12/07 09:45:47;;;;;;;44.17;36.47;;;;;;;;;;5038034;28;20488;-70
2022/12/07 09:48:19;;;;;;;55.65;35.70;;;;;;;;;;5053720;28;20017;-70
2022/12/07 09:50:45;;;;;;;54.00;36.08;;;;;;;;;;5053840;28;20031;-69
2022/12/07 09:53:17;;;;;;;50.05;40.20;;;;;;;;;;5043000;28;20032;-70
2022/12/07 09:55:43;;;;;;;53.38;37.08;;;;;;;;;;5056885;28;20051;-70
2022/12/07 09:58:16;;;;;;;56.65;37.67;;;;;;;;;;5052256;28;20071;-70
2022/12/07 10:00:42;;;;;;;52.03;37.13;;;;;;;;;;5050644;28;20025;-71
2022/12/07 10:03:08;;;;;;;48.20;36.10;;;;;;;;;;5036249;28;20040;-70
2022/12/07 10:05:44;;;;;;;55.63;35.45;;;;;;;;;;5041623;28;20118;-70
2022/12/07 10:08:13;;;;;;;45.53;30.45;;;;;;;;;;5042284;28;20032;-69
2022/12/07 10:10:39;;;;;;;47.78;33.78;;;;;;;;;;5049005;28;20036;-70
2022/12/07 10:13:05;;;;;;;47.13;33.22;;;;;;;;;;5046442;28;20490;-70
2022/12/07 10:15:41;;;;;;;37.80;30.23;;;;;;;;;;5041553;28;20021;-70
2022/12/07 10:18:13;;;;;;;39.15;28.27;;;;;;;;;;5036721;28;20267;-70
2022/12/07 10:20:39;;;;;;;36.58;25.52;;;;;;;;;;5046326;28;20431;-69
2022/12/07 10:23:05;;;;;;;30.45;24.25;;;;;;;;;;5038338;28;20014;-70
2022/12/07 10:25:35;;;;;;;34.13;23.70;;;;;;;;;;5041498;28;20025;-69
2022/12/07 10:28:00;;;;;;;32.17;20.33;;;;;;;;;;5046695;28;20102;-69
2022/12/07 10:30:25;;;;;;;28.17;18.77;;;;;;;;;;5039916;28;20481;-69
2022/12/07 10:32:50;;;;;;;25.50;18.65;;;;;;;;;;5044955;28;20013;-69
2022/12/07 10:35:29;;;;;;;24.42;18.65;;;;;;;;;;5047137;28;20021;-69
2022/12/07 10:37:57;;;;;;;30.27;19.25;;;;;;;;;;5046834;28;20017;-71
2022/12/07 10:40:24;;;;;;;24.05;18.40;;;;;;;;;;5046554;28;20507;-70
2022/12/07 10:43:00;;;;;;;32.20;21.15;;;;;;;;;;5048324;28;20021;-68
2022/12/07 10:45:25;;;;;;;29.20;21.40;;;;;;;;;;5037188;28;20425;-68
2022/12/07 10:48:12;;;;;;;34.05;21.88;;;;;;;;;;5042502;28;20115;-69
2022/12/07 10:50:56;;;;;;;35.10;22.67;;;;;;;;;;5036935;28;20034;-69
2022/12/07 10:53:30;;;;;;;27.98;20.63;;;;;;;;;;5044479;28;20033;-69
2022/12/07 10:55:55;;;;;;;27.23;19.15;;;;;;;;;;5033420;28;20017;-68
2022/12/07 10:58:23;;;;;;;22.70;16.90;;;;;;;;;;5036509;28;20029;-70
2022/12/07 11:00:51;;;;;;;24.23;17.35;;;;;;;;;;5037746;28;20032;-69
2022/12/07 11:03:22;;;;;;;23.85;18.02;;;;;;;;;;5035349;28;20024;-68
2022/12/07 11:05:58;;;;;;;24.42;17.25;;;;;;;;;;5045719;28;20045;-71
2022/12/07 11:08:40;;;;;;;25.83;17.48;;;;;;;;;;5043878;28;20166;-71
2022/12/07 11:11:23;;;;;;;17.60;14.35;;;;;;;;;;5038011;28;21186;-69
2022/12/07 11:14:01;;;;;;;27.30;14.73;;;;;;;;;;5044368;28;20029;-70
2022/12/07 11:16:32;;;;;;;22.55;13.90;;;;;;;;;;5050107;28;20023;-70
2022/12/07 11:18:57;;;;;;;19.70;13.82;;;;;;;;;;5041245;28;20029;-69
2022/12/07 11:21:22;;;;;;;20.67;13.10;;;;;;;;;;5033484;28;20744;-70
2022/12/07 11:23:50;;;;;;;24.77;12.32;;;;;;;;;;5045137;28;20272;-71
2022/12/07 11:26:16;;;;;;;22.40;12.10;;;;;;;;;;5052250;28;20655;-69
2022/12/07 11:28:50;;;;;;;18.33;13.48;;;;;;;;;;5051959;28;20028;-69
2022/12/07 11:31:26;;;;;;;18.08;13.02;;;;;;;;;;5050586;28;20021;-70
2022/12/07 11:33:55;;;;;;;20.63;14.95;;;;;;;;;;5052093;28;20383;-69
2022/12/07 11:36:38;;;;;;;21.08;13.35;;;;;;;;;;5052433;28;20013;-71
2022/12/07 11:39:10;;;;;;;15.43;10.13;;;;;;;;;;5052240;28;20103;-71
2022/12/07 11:41:37;;;;;;;17.88;11.43;;;;;;;;;;5052717;28;20025;-70
2022/12/07 11:44:07;;;;;;;14.77;11.52;;;;;;;;;;5043792;28;20015;-71
2022/12/07 11:46:44;;;;;;;15.63;10.25;;;;;;;;;;5048825;28;20021;-71
2022/12/07 11:49:13;;;;;;;16.63;10.60;;;;;;;;;;5032844;28;20053;-69
2022/12/07 11:51:40;;;;;;;18.10;9.90;;;;;;;;;;5032862;28;20025;-71
2022/12/07 11:54:12;;;;;;;19.88;10.57;;;;;;;;;;5023499;28;20052;-72
2022/12/07 11:56:37;;;;;;;13.85;7.30;;;;;;;;;;5024530;28;20869;-71
2022/12/07 11:59:04;;;;;;;13.63;7.82;;;;;;;;;;5013429;28;20017;-69
2022/12/07 12:01:38;;;;;;;14.50;8.07;;;;;;;;;;5025392;28;20021;-69
2022/12/07 12:04:10;;;;;;;23.88;6.70;;;;;;;;;;5034133;28;20499;-70
2022/12/07 12:06:35;;;;;;;13.88;7.05;;;;;;;;;;5037763;28;20108;-70
2022/12/07 12:09:25;;;;;;;10.20;6.55;;;;;;;;;;5039192;28;20503;-70
2022/12/07 12:11:59;;;;;;;15.88;7.15;;;;;;;;;;5052068;28;20150;-68
2022/12/07 12:14:25;;;;;;;;;;;;;;;;;;5052613;28;20028;-71
2022/12/07 12:17:09;;;;;;;13.52;7.22;;;;;;;;;;5050188;28;19905;-71
2022/12/07 12:19:52;;;;;;;12.55;6.75;;;;;;;;;;5052351;28;20013;-70
2022/12/07 12:22:19;;;;;;;11.65;6.38;;;;;;;;;;5049127;28;20020;-69
2022/12/07 12:24:48;;;;;;;18.42;6.53;;;;;;;;;;5050403;28;20017;-70
2022/12/07 12:27:33;;;;;;;9.10;6.03;;;;;;;;;;5050142;28;20017;-70
2022/12/07 12:30:00;;;;;;;12.10;6.28;;;;;;;;;;5049307;28;20523;-71
2022/12/07 12:32:34;;;;;;;20.33;7.63;;;;;;;;;;5051250;28;20102;-70
2022/12/07 12:34:59;;;;;;;;;;;;;;;;;;5051598;28;20049;-70
2022/12/07 12:37:34;;;;;;;10.83;5.53;;;;;;;;;;5051615;28;20389;-70
2022/12/07 12:40:14;;;;;;;12.68;5.60;;;;;;;;;;5048344;28;20855;-70
2022/12/07 12:42:53;;;;;;;25.25;7.50;;;;;;;;;;5048168;28;20060;-71
2022/12/07 12:45:18;;;;;;;15.45;5.75;;;;;;;;;;5039902;28;20479;-70
2022/12/07 12:47:59;;;;;;;8.75;5.30;;;;;;;;;;5054106;28;20070;-71
2022/12/07 12:50:29;;;;;;;9.45;5.68;;;;;;;;;;5038713;28;20101;-71
2022/12/07 12:52:57;;;;;;;21.58;6.20;;;;;;;;;;5044535;28;20025;-71
2022/12/07 12:55:29;;;;;;;16.73;6.97;;;;;;;;;;5051959;28;20023;-74
2022/12/07 12:58:13;;;;;;;14.68;6.40;;;;;;;;;;5042731;28;20388;-76
2022/12/07 13:00:41;;;;;;;11.95;6.40;;;;;;;;;;4999921;28;20988;-71
2022/12/07 13:03:21;;;;;;;9.90;5.72;;;;;;;;;;5032687;28;20013;-71
2022/12/07 13:05:46;;;;;;;11.70;6.05;;;;;;;;;;5043905;28;20531;-72
2022/12/07 13:08:21;;;;;;;18.35;7.13;;;;;;;;;;5050396;28;20104;-72
2022/12/07 13:10:47;;;;;;;12.50;7.35;;;;;;;;;;5047772;28;20021;-72
2022/12/07 13:13:13;;;;;;;11.88;5.90;;;;;;;;;;5046021;28;20070;-71
2022/12/07 13:15:46;;;;;;;11.18;6.65;;;;;;;;;;5054714;28;20028;-71
2022/12/07 13:18:30;;;;;;;13.93;6.07;;;;;;;;;;5042365;28;20045;-71
2022/12/07 13:20:59;;;;;;;18.15;5.72;;;;;;;;;;5047142;28;20013;-71
2022/12/07 13:23:42;;;;;;;14.57;6.25;;;;;;;;;;5051322;28;20513;-70
2022/12/07 13:26:26;;;;;;;10.95;5.05;;;;;;;;;;5052128;28;20456;-70
2022/12/07 13:28:52;;;;;;;10.70;6.45;;;;;;;;;;5043362;28;20092;-71
2022/12/07 13:31:30;;;;;;;12.20;5.78;;;;;;;;;;5037822;28;20127;-71
2022/12/07 13:33:55;;;;;;;12.18;6.28;;;;;;;;;;5050687;28;20027;-68
2022/12/07 13:36:24;;;;;;;11.70;5.95;;;;;;;;;;5051784;28;20096;-70
2022/12/07 13:38:51;;;;;;;11.80;6.40;;;;;;;;;;5042142;28;20098;-70
2022/12/07 13:41:18;;;;;;;16.52;7.25;;;;;;;;;;5052819;28;20028;-70
2022/12/07 13:43:48;;;;;;;10.18;6.18;;;;;;;;;;5047909;28;20021;-70
2022/12/07 13:46:17;;;;;;;10.75;6.85;;;;;;;;;;5052334;28;20056;-71
2022/12/07 13:48:48;;;;;;;15.07;6.22;;;;;;;;;;5051605;28;20044;-70
2022/12/07 13:51:19;;;;;;;12.50;5.88;;;;;;;;;;5053710;28;20041;-72
2022/12/07 13:53:52;;;;;;;11.38;6.50;;;;;;;;;;5064714;28;20020;-72
2022/12/07 13:56:17;;;;;;;12.27;7.17;;;;;;;;;;5056295;28;20469;-73
2022/12/07 13:58:43;;;;;;;8.70;6.03;;;;;;;;;;5053788;28;20279;-71
2022/12/07 14:01:09;;;;;;;11.45;6.15;;;;;;;;;;5061838;28;20036;-72
2022/12/07 14:03:35;;;;;;;12.68;6.72;;;;;;;;;;5061825;28;20038;-71
2022/12/07 14:06:15;;;;;;;10.10;5.50;;;;;;;;;;5054322;28;20013;-71
2022/12/07 14:08:41;;;;;;;13.07;6.18;;;;;;;;;;5061349;28;20038;-71
2022/12/07 14:11:07;;;;;;;11.00;6.43;;;;;;;;;;5042502;28;20021;-70
2022/12/07 14:13:35;;;;;;;8.70;5.65;;;;;;;;;;5050453;28;20017;-71
2022/12/07 14:16:01;;;;;;;15.40;6.60;;;;;;;;;;5038015;28;20025;-71
2022/12/07 14:18:44;;;;;;;14.07;6.55;;;;;;;;;;5053845;28;20029;-71
2022/12/07 14:21:09;;;;;;;8.57;5.20;;;;;;;;;;5047335;28;20104;-71
2022/12/07 14:23:35;;;;;;;7.33;5.27;;;;;;;;;;5047791;28;20148;-71
2022/12/07 14:26:20;;;;;;;9.38;4.40;;;;;;;;;;5052423;28;20335;-71
2022/12/07 14:28:46;;;;;;;10.48;4.68;;;;;;;;;;5051939;28;20021;-74
2022/12/07 14:31:12;;;;;;;11.93;4.60;;;;;;;;;;5047288;28;20047;-72
2022/12/07 14:33:38;;;;;;;7.15;4.18;;;;;;;;;;5054420;28;20243;-72
2022/12/07 14:36:03;;;;;;;10.95;4.25;;;;;;;;;;5057624;28;20068;-72
2022/12/07 14:38:29;;;;;;;8.75;4.63;;;;;;;;;;5052956;28;20032;-71